Grulla, Texas
Current Conditions -  °F | °C
As of 4:53 PM on Tuesday 25 Nov 2014 (Local Time) from KMFE Reporting Station
Clear Clear  
Wind Chill: 68°   Ceiling: Unl
Heat Index: 68°   Visibility: 10mi
Dew Point: 27°   Wind: 9mph
Humidity: 21%   Direction: 350°N
Pressure: 30.29"   Gusts: NA
Location:  26.27°N, 98.65°W
Report Text: KMFE 252253Z 35008KT 10SM CLR 20/M03 A3029 RMK AO2 SLP256 T02001028
Loading
Personal Weather Stations






























Interactive Weather Map New forecast layout! Learn more

10-Day Weather Forecast

Advertisements
Track Severe Weather on mobile